Latest Weather Observations for Cape Borda

IDS60801

Issued at 5:05 pm CST Wednesday 23 April 2014 (issued every 30 minutes, with the page automatically refreshed every 10 minutes)

About weather observations | Map of weather stations | Latest weather observations for SA | Other Formats
Station Details ID: 022823 Name: CAPE BORDA Lat: -35.75 Lon: 136.60 Height: 158.0 m
Data from the previous 72 hours. | See also: Recent months at Cape Borda
Date/Time
CST
Temp
°C
App
Temp
°C
Dew
Point
Rel
Hum
%
Delta-T
°C
Wind Press
QNH
hPa
Press
MSL
hPa
Rain
since 9 am
mm
Dir
 
Spd
km/h
Gust
km/h
Spd
kts
Gust
kts
23/05:00pm 13.7 9.4 13.3 97 0.2 W 28 41 15 22 1014.0 - 1.8
23/04:30pm 16.3 12.1 12.3 77 2.2 NW 26 35 14 19 1013.8 - 0.0
23/04:00pm 16.6 13.7 12.3 76 2.4 NNW 19 26 10 14 1013.9 - 0.0
23/03:30pm 17.2 13.6 11.9 71 2.9 NNW 22 33 12 18 1013.9 - 0.0
23/03:00pm 17.5 13.8 11.5 68 3.3 NNW 22 30 12 16 1013.9 1013.8 0.0
23/02:30pm 18.1 14.9 11.8 66 3.5 NNW 20 30 11 16 1013.9 - 0.0
23/02:00pm 18.0 15.0 11.9 67 3.4 NNW 19 28 10 15 1014.2 - 0.0
23/01:30pm 17.3 13.1 11.0 66 3.4 NNW 24 30 13 16 1014.6 - 0.0
23/01:00pm 18.3 14.5 11.2 63 3.9 NNW 22 30 12 16 1015.0 - 0.0
23/12:30pm 17.8 14.2 10.6 62 3.9 NNW 20 30 11 16 1015.5 - 0.0
23/12:00pm 17.5 13.9 10.4 63 3.8 NNW 20 30 11 16 1016.0 1015.8 0.0
23/11:30am 18.5 15.1 11.4 63 3.9 NNW 20 30 11 16 1016.6 - 0.0
23/11:00am 17.0 13.0 10.5 65 3.5 NNW 22 28 12 15 1016.8 - 0.0
23/10:30am 17.3 13.8 11.0 66 3.4 NW 20 30 11 16 1017.2 - 0.0
23/10:00am 16.7 13.0 11.6 72 2.8 NNW 22 32 12 17 1017.5 - 0.0
23/09:30am 16.0 12.2 11.0 72 2.7 NW 22 30 12 16 1017.7 - 0.0
23/09:00am 16.1 12.8 11.5 74 2.5 NW 20 28 11 15 1017.8 1017.7 0.0
23/08:30am 14.8 11.6 11.3 79 1.9 NW 19 28 10 15 1017.6 - 0.0
23/08:00am 14.5 11.5 10.5 77 2.1 NW 17 22 9 12 1017.5 - 0.0
23/07:30am 14.3 11.9 10.1 76 2.2 NNW 13 20 7 11 1017.2 - 0.0
23/07:00am 13.9 11.3 10.7 81 1.7 NNW 15 24 8 13 1017.0 - 0.0
23/06:30am 13.9 11.6 10.5 80 1.8 NNW 13 19 7 10 1016.9 - 0.0
23/06:00am 13.7 11.0 10.5 81 1.7 N 15 19 8 10 1016.8 1016.7 0.0
23/05:30am 13.6 11.4 10.8 83 1.5 N 13 20 7 11 1016.9 - 0.0
23/05:00am 13.4 11.1 10.3 81 1.6 N 13 20 7 11 1016.8 - 0.0
23/04:30am 13.0 10.7 10.5 85 1.3 N 13 17 7 9 1016.9 - 0.0
23/04:00am 12.2 11.0 10.3 88 1.0 NNE 7 9 4 5 1016.8 - 0.0
23/03:30am 11.8 10.5 9.8 87 1.0 NNE 7 11 4 6 1017.1 - 0.0
23/03:00am 11.7 10.1 10.1 90 0.8 N 9 11 5 6 1017.6 1017.5 0.0
23/02:30am 11.5 9.5 10.1 91 0.7 N 11 13 6 7 1017.6 - 0.0
23/02:00am 10.8 8.6 9.4 91 0.7 NNE 11 13 6 7 1018.0 - 0.0
23/01:30am 11.0 9.1 9.2 89 0.9 NNE 9 11 5 6 1018.2 - 0.0
23/01:00am 10.9 9.2 8.5 85 1.2 ESE 7 7 4 4 1018.3 - 0.0
23/12:30am 10.4 8.8 7.9 84 1.2 ESE 6 7 3 4 1018.3 - 0.0
23/12:00am 10.2 8.1 8.4 89 0.9 ESE 9 11 5 6 1018.5 1018.4 0.0
 
Date/Time
CST
Temp
°C
App
Temp
°C
Dew
Point
Rel
Hum
%
Delta-T
°C
Wind Press
QNH
hPa
Press
MSL
hPa
Rain
since 9 am
mm
Dir
 
Spd
km/h
Gust
km/h
Spd
kts
Gust
kts
22/11:30pm 10.3 8.7 8.7 90 0.8 SE 7 9 4 5 1018.7 - 0.0
22/11:00pm 10.3 8.4 8.9 91 0.7 ESE 9 11 5 6 1018.9 - 0.0
22/10:30pm 10.4 8.1 9.0 91 0.7 SE 11 11 6 6 1019.1 - 0.0
22/10:00pm 10.8 8.6 9.4 91 0.7 SE 11 11 6 6 1019.4 - 0.0
22/09:30pm 10.5 8.2 9.1 91 0.7 SE 11 11 6 6 1019.6 - 0.0
22/09:00pm 10.5 8.2 8.9 90 0.8 SE 11 13 6 7 1019.4 1019.3 0.0
22/08:30pm 10.6 7.9 9.0 90 0.8 SE 13 15 7 8 1019.2 - 0.0
22/08:00pm 11.0 8.3 9.0 87 1.0 SSE 13 15 7 8 1019.1 - 0.0
22/07:30pm 11.6 9.3 9.0 84 1.3 SSE 11 13 6 7 1019.2 - 0.0
22/07:00pm 12.0 9.8 9.2 83 1.4 S 11 13 6 7 1019.1 - 0.0
22/06:30pm 12.4 10.2 9.2 81 1.6 S 11 13 6 7 1018.7 - 0.0
22/06:00pm 13.0 10.4 9.3 78 1.9 S 13 13 7 7 1018.5 1018.4 0.0
22/05:30pm 14.0 11.7 9.1 72 2.5 S 11 13 6 7 1018.3 - 0.0
22/05:00pm 14.9 12.2 8.8 67 3.1 S 13 19 7 10 1018.2 - 0.0
22/04:30pm 15.5 12.5 9.1 65 3.3 SW 15 22 8 12 1018.1 - 0.0
22/04:00pm 16.5 14.3 10.7 68 3.1 SW 13 22 7 12 1018.0 - 0.0
22/03:30pm 15.5 12.1 10.6 72 2.6 SW 19 24 10 13 1018.0 - 0.0
22/03:00pm 16.9 13.1 9.7 62 3.8 SW 20 26 11 14 1017.8 1017.7 0.0
22/02:30pm 16.7 12.3 9.0 60 4.0 SW 22 28 12 15 1017.9 - 0.0
22/02:00pm 16.7 12.6 8.8 59 4.1 SW 20 30 11 16 1017.8 - 0.0
22/01:30pm 16.5 12.8 9.4 63 3.7 WSW 19 26 10 14 1017.8 - 0.0
22/01:00pm 17.9 14.1 9.8 59 4.3 WSW 20 28 11 15 1017.8 - 0.0
22/12:30pm 17.2 12.7 8.5 56 4.5 SW 22 30 12 16 1018.0 - 0.0
22/12:00pm 16.8 12.6 8.2 57 4.4 SW 20 32 11 17 1018.3 1018.2 0.0
22/11:30am 16.8 12.0 7.2 53 4.8 SW 22 32 12 17 1018.4 - 0.0
22/11:00am 16.3 11.1 7.1 54 4.6 SW 24 33 13 18 1018.3 - 0.0
22/10:30am 16.6 11.5 5.9 49 5.2 SW 22 30 12 16 1018.3 - 0.0
22/10:00am 16.4 11.6 7.2 54 4.6 SSW 22 33 12 18 1018.1 - 0.0
22/09:30am 15.7 10.4 7.0 56 4.3 SSW 24 32 13 17 1018.3 - 0.0
22/09:00am 15.2 10.1 7.6 60 3.8 SSW 24 35 13 19 1018.2 1018.1 1.6
22/08:30am 15.1 9.9 7.2 59 3.9 SSW 24 39 13 21 1017.8 - 1.6
22/08:00am 14.1 9.3 7.2 63 3.4 SSW 22 30 12 16 1017.4 - 1.6
22/07:30am 13.5 8.5 7.9 69 2.8 SSW 24 32 13 17 1016.8 - 1.6
22/07:00am 12.9 8.4 8.7 75 2.1 SSW 22 32 12 17 1016.2 - 1.6
22/06:30am 13.1 7.7 7.9 70 2.6 SSW 26 33 14 18 1015.8 - 1.6
22/06:00am 13.3 8.1 8.8 74 2.3 SSW 26 35 14 19 1015.6 1015.4 -
22/05:30am 13.3 8.4 8.5 72 2.4 SSW 24 33 13 18 1015.3 - 1.6
22/05:00am 13.4 9.1 9.5 77 2.0 SSW 22 30 12 16 1015.2 - 1.6
22/04:30am 13.5 9.1 8.8 73 2.4 SSW 22 30 12 16 1015.0 - 1.6
22/04:00am 13.8 9.5 9.3 74 2.3 SSW 22 33 12 18 1014.6 - 1.6
22/03:30am 13.6 9.3 9.3 75 2.2 SSW 22 32 12 17 1014.4 - 1.6
22/03:00am 13.8 9.2 9.5 75 2.2 SW 24 37 13 20 1014.3 1014.1 1.6
22/02:30am 13.8 9.3 10.0 78 2.0 SSW 24 39 13 21 1013.8 - 1.6
22/02:00am 13.6 9.4 11.0 84 1.4 SSW 24 33 13 18 1013.5 - 1.6
22/01:30am 13.3 9.2 11.4 88 1.0 SSW 24 32 13 17 1013.2 - 1.6
22/01:00am 13.2 10.0 11.9 92 0.7 SSW 20 26 11 14 1013.2 - 1.6
22/12:30am 13.4 11.0 12.5 94 0.5 S 17 24 9 13 1013.4 - 1.2
22/12:00am 13.5 10.5 12.4 93 0.6 S 20 28 11 15 1013.1 1013.0 1.2
 
Date/Time
CST
Temp
°C
App
Temp
°C
Dew
Point
Rel
Hum
%
Delta-T
°C
Wind Press
QNH
hPa
Press
MSL
hPa
Rain
since 9 am
mm
Dir
 
Spd
km/h
Gust
km/h
Spd
kts
Gust
kts
21/11:30pm 14.1 10.9 13.0 93 0.6 S 22 32 12 17 1012.9 - 1.0
21/11:00pm 14.5 10.2 13.2 92 0.7 SSW 28 39 15 21 1012.7 - 0.2
21/10:30pm 14.8 10.6 13.4 91 0.8 SSW 28 39 15 21 1012.8 - 0.2
21/10:00pm 15.3 10.7 13.5 89 1.0 S 30 43 16 23 1012.0 - 0.2
21/09:30pm 15.5 10.6 14.3 92 0.7 SSW 33 46 18 25 1011.7 - 0.2
21/09:00pm 15.6 11.3 14.4 93 0.7 S 30 43 16 23 1011.1 1011.0 0.2
21/08:30pm 16.1 13.2 15.2 94 0.5 S 24 35 13 19 1010.6 - 0.2
21/08:18pm 16.2 14.7 15.3 94 0.5 S 17 22 9 12 1011.9 - 0.2
21/08:00pm 16.3 12.8 15.4 94 0.5 S 28 35 15 19 1009.9 - 0.2
21/07:59pm 16.4 12.9 15.4 94 0.6 S 28 35 15 19 1010.0 - 0.2
21/07:30pm 16.4 14.1 15.7 96 0.4 SW 22 30 12 16 1012.1 - 0.2
21/07:00pm 16.6 15.0 15.9 96 0.4 S 19 26 10 14 1010.7 - 0.2
21/06:30pm 16.8 15.5 15.8 94 0.6 SSE 17 26 9 14 1010.8 - 0.0
21/06:00pm 17.2 14.6 16.0 93 0.7 - 24 33 13 18 1010.8 1010.6 0.0
21/05:30pm 17.7 16.1 16.5 93 0.7 WSW 20 26 11 14 1010.4 - 0.0
21/05:00pm 18.3 16.7 16.5 89 1.1 W 20 24 11 13 1010.3 - 0.0
21/04:30pm 18.4 16.8 15.9 85 1.5 WSW 19 28 10 15 1010.1 - 0.0
21/04:00pm 18.5 18.1 15.1 80 2.0 W 11 17 6 9 1009.5 - 0.0
21/03:30pm 18.6 18.5 14.9 79 2.2 N 9 17 5 9 1008.8 - 0.0
21/03:00pm 18.8 18.3 14.9 78 2.3 NW 11 15 6 8 1009.6 1009.4 0.0
21/02:30pm 19.1 17.4 14.7 75 2.6 NW 17 24 9 13 1009.4 - 0.0
21/02:00pm 19.1 17.7 14.5 74 2.7 NNW 15 22 8 12 1009.6 - 0.0
21/01:30pm 19.4 16.8 13.7 69 3.3 NW 20 32 11 17 1009.6 - 0.0
21/01:00pm 19.4 16.2 13.1 67 3.6 NW 22 32 12 17 1010.1 - -
21/12:30pm 20.3 16.2 11.5 57 4.9 NNW 24 33 13 18 1010.6 - 0.0
21/12:00pm 20.3 17.2 11.5 57 4.9 N 19 28 10 15 1010.7 1010.5 0.0
21/11:30am 20.4 17.6 11.4 56 5.0 N 17 28 9 15 1010.6 - 0.0
21/11:00am 20.3 17.2 11.7 57 4.8 N 19 28 10 15 1010.6 - 0.0
21/10:30am 20.5 17.3 11.8 57 4.9 N 20 24 11 13 1010.9 - -
21/10:00am 20.3 18.1 13.4 64 4.0 N 17 20 9 11 1010.9 - 0.0
21/09:30am 20.0 18.2 13.4 65 3.8 N 15 26 8 14 1011.6 - -
21/09:00am 19.6 16.6 12.5 63 4.0 NNE 20 39 11 21 1011.4 1011.3 0.0
21/08:30am 19.3 15.7 13.0 67 3.6 NNE 24 35 13 19 1010.9 - 0.0
21/08:00am 19.1 15.2 13.3 69 3.3 NNE 26 39 14 21 1010.6 - -
21/07:30am 18.5 14.9 14.2 76 2.5 NE 26 35 14 19 1010.4 - 0.0
21/07:00am 18.1 14.4 13.9 76 2.4 NE 26 39 14 21 1010.3 - -
21/06:30am 17.8 13.6 13.4 75 2.5 NE 28 41 15 22 1010.3 - 0.0
21/06:00am 18.0 13.7 13.1 73 2.8 NE 28 39 15 21 1010.6 1010.4 0.0
21/05:30am 17.8 13.4 12.8 72 2.8 NE 28 37 15 20 1010.8 - 0.0
21/05:00am 17.8 12.8 12.2 70 3.1 NE 30 41 16 22 1010.7 - 0.0
21/04:30am 17.3 12.4 12.5 73 2.7 NE 30 39 16 21 1010.9 - 0.0
21/04:00am 18.1 12.5 11.4 65 3.7 NE 32 46 17 25 1011.0 - 0.0
21/03:30am 17.3 12.3 14.0 81 1.9 ENE 33 46 18 25 1011.2 - 0.0
21/03:00am 16.7 12.0 14.4 86 1.3 ENE 32 43 17 23 1011.5 1011.4 0.0
21/02:30am 16.6 11.7 14.2 86 1.4 ENE 33 44 18 24 1011.8 - 0.0
21/02:00am 16.4 11.4 13.9 85 1.4 ENE 33 44 18 24 1012.2 - 0.0
21/01:30am 16.3 11.2 13.8 85 1.4 ENE 33 50 18 27 1012.5 - 0.0
21/01:26am 16.2 11.4 13.9 86 1.3 ENE 32 50 17 27 1012.6 - 0.0
21/01:00am 15.9 11.1 14.5 91 0.8 ENE 33 44 18 24 1013.0 - 0.0
21/12:30am 15.9 11.1 14.0 88 1.1 ENE 32 41 17 22 1013.5 - 0.0
21/12:00am 16.0 11.2 13.0 82 1.7 ENE 30 43 16 23 1013.9 1013.8 0.0
 
Date/Time
CST
Temp
°C
App
Temp
°C
Dew
Point
Rel
Hum
%
Delta-T
°C
Wind Press
QNH
hPa
Press
MSL
hPa
Rain
since 9 am
mm
Dir
 
Spd
km/h
Gust
km/h
Spd
kts
Gust
kts
20/11:30pm 16.0 11.4 12.2 78 2.1 ENE 28 37 15 20 1014.4 - 0.0
20/11:00pm 15.7 12.0 12.8 83 1.6 ENE 24 32 13 17 1015.0 - 0.0
20/10:30pm 15.7 12.0 12.8 83 1.6 ENE 24 33 13 18 1015.4 - 0.0
20/10:00pm 15.4 11.8 13.1 86 1.3 ENE 24 32 13 17 1015.2 - 0.0
20/09:30pm 15.0 12.4 13.9 93 0.6 ENE 20 26 11 14 1016.0 - 0.0
20/09:00pm 15.1 12.6 14.0 93 0.6 E 20 30 11 16 1015.7 1015.5 0.0
20/08:30pm 15.0 13.8 13.9 93 0.6 E 13 17 7 9 1016.5 - -
20/08:00pm 15.2 13.9 13.8 91 0.8 E 13 15 7 8 1016.8 - 0.0
20/07:30pm 15.2 14.3 13.6 90 0.9 E 11 13 6 7 1017.1 - 0.0
20/07:00pm 15.5 15.2 13.2 86 1.3 W 7 9 4 5 1017.2 - 0.0
20/06:30pm 15.6 16.4 12.7 83 1.6 CALM 0 0 0 0 1017.2 - 0.0
20/06:00pm 16.2 16.1 13.4 83 1.6 W 6 7 3 4 1017.0 1016.9 0.0
20/05:30pm 16.7 17.0 13.3 80 1.9 W 4 7 2 4 1016.8 - 0.0

Other Formats:

Comma delimited format used in spreadsheet applications
http://www.bom.gov.au/fwo/IDS60801/IDS60801.95805.axf

JavaScript Object Notation format (JSON) in row-major order
http://www.bom.gov.au/fwo/IDS60801/IDS60801.95805.json